Startpagina
METAR-TAF:

METAR-TAF

Vliegvelden :

Malé, Hulhule Island, Maldiven

Malé International Airport

breedte: 04-12N, lengte: 073-32E, hoogte: 2 m

Actueel weer

Dit bericht is 33 minuten geleden gemaakt, om 06:00 UTC
Wind 2 kt uit variabele richting
Temperatuur 31°C
Vochtigheid 75%
Druk 1011 hPa
Zicht 10 km of meer
Weinig wolken op 1900 ft

METAR: VRMM 190600Z VRB02KT 9999 FEW019 31/26 Q1011 NOSIG

Tijdstip: 11:33 (06:33 UTC)

Verwachting

Dit bericht is 1 uur en het 33 minuten geleden gemaakt, om 05:00 UTC
Verwachting geldig van 19 om 06 UTC tot 20 om 12 UTC
Wind 5 kt uit het westnoordwesten
Zicht 10 km of meer
Weinig wolken op 1900 ft

TAF: VRMM 190500Z 1906/2012 29005KT 9999 FEW019

Waarnemingen en weersverwachtingen van meer dan 4000 vliegvelden (METAR en TAF).

De beschikbare stations zijn de gele en rode punten op de kaart.

Ga met uw muis naar het station om de naam te zien.

Klik dan om waarnemingen en weersverwachtingen te zien.

kaart wijzigen: klik op de groene knoppen met een zwart kruis om in te zoomen, op de groene knop met een streepje om uit te zoomen of op de groene pijlen voor aangrenzende kaarten.


METAR-TAF: